Time;durP1;ratioP1;P1;durP2;ratioP2;P2;SDS_P1;SDS_P2;PMS_P1;PMS_P2;Temp;Humidity;BMP_temperature;BMP_pressure;BME280_temperature;BME280_humidity;BME280_pressure;Samples;Min_cycle;Max_cycle;Signal;HPM_P1;HPM_P2
2022/10/19 00:05:31;;;;;;;13.80;10.90;;;;;;;10.72;90.88;100099.31;434813;1286;194784;-73
2022/10/19 00:15:40;;;;;;;14.20;12.60;;;;;;;10.71;90.62;100099.25;435552;1285;142763;-73
2022/10/19 00:25:56;;;;;;;15.70;11.80;;;;;;;10.62;90.55;100096.23;428008;1278;142458;-72
2022/10/19 00:36:03;;;;;;;13.80;10.60;;;;;;;10.42;90.25;100099.92;420494;1278;143906;-72
2022/10/19 00:46:14;;;;;;;12.50;10.10;;;;;;;10.09;90.18;100102.40;419566;1281;142604;-73
2022/10/19 00:56:20;;;;;;;12.10;10.80;;;;;;;9.88;90.66;100096.86;420164;1278;146583;-73
2022/10/19 01:06:26;;;;;;;13.40;11.70;;;;;;;9.94;91.21;100093.40;420137;1278;168175;-74
2022/10/19 01:16:42;;;;;;;14.50;10.70;;;;;;;9.84;91.01;100082.36;419773;1278;143125;-74
2022/10/19 01:27:06;;;;;;;14.30;12.30;;;;;;;9.87;91.60;100065.27;419662;1278;147622;-73
2022/10/19 01:37:22;;;;;;;14.70;13.20;;;;;;;9.88;91.67;100060.31;420785;1278;143666;-75
2022/10/19 01:47:31;;;;;;;16.30;12.40;;;;;;;9.82;91.46;100053.44;420200;1278;142128;-74
2022/10/19 01:57:40;;;;;;;15.60;13.90;;;;;;;9.68;91.47;100057.73;420889;1278;146125;-73
2022/10/19 02:07:49;;;;;;;22.40;14.50;;;;;;;9.59;91.73;100056.09;419767;1278;141583;-74
2022/10/19 02:17:58;;;;;;;18.90;14.30;;;;;;;9.59;91.77;100050.66;418935;1278;142380;-71
2022/10/19 02:28:06;;;;;;;18.30;15.20;;;;;;;9.54;91.80;100043.91;419785;1284;142840;-73
2022/10/19 02:38:16;;;;;;;15.90;13.80;;;;;;;9.31;91.65;100034.45;420193;1278;146512;-73
2022/10/19 02:48:25;;;;;;;20.30;14.10;;;;;;;9.04;91.62;100027.45;418843;1278;146529;-74
2022/10/19 02:58:31;;;;;;;18.40;12.80;;;;;;;8.92;92.07;100025.71;421129;1278;146468;-73
2022/10/19 03:08:36;;;;;;;15.60;12.00;;;;;;;8.92;92.22;100010.56;418399;1278;142609;-74
2022/10/19 03:18:42;;;;;;;16.40;12.00;;;;;;;8.73;92.11;100007.12;418955;1284;142903;-74
2022/10/19 03:28:48;;;;;;;13.90;12.30;;;;;;;8.75;92.71;100009.33;419058;1278;142732;-74
2022/10/19 03:38:56;;;;;;;20.50;14.30;;;;;;;8.90;93.17;100007.66;419369;1278;143066;-73
2022/10/19 03:49:02;;;;;;;21.80;14.40;;;;;;;9.12;93.31;99999.61;420092;1278;142966;-73
2022/10/19 03:59:11;;;;;;;16.70;14.40;;;;;;;9.29;93.28;99994.50;428662;1274;147244;-74
2022/10/19 04:09:19;;;;;;;18.90;16.40;;;;;;;9.44;93.14;99991.13;427318;1285;199380;-73
2022/10/19 04:19:25;;;;;;;19.90;16.90;;;;;;;9.51;92.77;99997.19;426844;1281;142800;-73
2022/10/19 04:29:31;;;;;;;20.80;15.90;;;;;;;9.53;92.57;99999.38;433553;1285;147378;-73
2022/10/19 04:39:39;;;;;;;18.50;16.10;;;;;;;9.59;92.45;99999.46;435423;1279;143029;-73
2022/10/19 04:49:45;;;;;;;20.50;16.10;;;;;;;9.61;92.04;99984.45;435585;1282;145111;-74
2022/10/19 04:59:51;;;;;;;18.40;15.80;;;;;;;9.51;91.91;99973.09;434725;1285;146554;-73
2022/10/19 05:09:56;;;;;;;16.40;14.70;;;;;;;9.50;92.01;99970.75;435487;1284;145484;-73
2022/10/19 05:20:02;;;;;;;19.80;15.20;;;;;;;9.44;91.98;99963.86;435575;1286;143903;-73
2022/10/19 05:30:10;;;;;;;17.60;14.80;;;;;;;9.46;91.95;99963.41;434850;1290;143107;-73
2022/10/19 05:40:16;;;;;;;16.10;14.10;;;;;;;9.56;92.13;99967.10;435359;1291;142240;-73
2022/10/19 05:50:21;;;;;;;20.40;14.00;;;;;;;9.68;92.00;99968.39;434809;1284;143445;-73
2022/10/19 06:00:27;;;;;;;16.80;14.10;;;;;;;9.79;91.90;99967.59;433625;1292;144059;-72
2022/10/19 06:10:33;;;;;;;14.50;11.50;;;;;;;9.89;91.53;99970.20;435463;1286;142956;-73
2022/10/19 06:20:41;;;;;;;17.00;12.00;;;;;;;10.02;91.13;99974.90;434626;1285;144998;-72
2022/10/19 06:30:45;;;;;;;;;;;;;;;10.09;90.80;99974.52;428155;1277;142606;-72
2022/10/19 06:40:51;;;;;;;16.20;12.10;;;;;;;10.20;90.23;99980.19;435803;1287;129098;-73
2022/10/19 06:50:59;;;;;;;10.50;9.40;;;;;;;10.39;89.68;99986.67;434768;1284;142155;-72
2022/10/19 07:01:07;;;;;;;11.60;9.50;;;;;;;10.45;89.17;99989.87;435564;1292;142590;-72
2022/10/19 07:11:17;;;;;;;11.10;8.80;;;;;;;10.58;88.75;99990.91;435570;1285;142167;-72
2022/10/19 07:21:24;;;;;;;13.10;8.90;;;;;;;10.90;88.09;99992.73;434663;1285;197437;-72
2022/10/19 07:31:32;;;;;;;11.60;8.00;;;;;;;10.94;87.22;100015.42;435555;1284;142192;-73
2022/10/19 07:41:38;;;;;;;8.90;6.40;;;;;;;10.76;86.92;100021.73;434819;1293;143295;-72
2022/10/19 07:51:44;;;;;;;8.30;5.50;;;;;;;10.83;86.66;100027.43;435539;1290;144617;-72
2022/10/19 08:01:51;;;;;;;4.30;3.80;;;;;;;12.57;85.25;100022.70;435569;1287;141551;-65
2022/10/19 08:11:58;;;;;;;7.90;3.20;;;;;;;14.38;81.28;100024.87;434841;1287;142241;-64
2022/10/19 08:22:03;;;;;;;4.40;2.80;;;;;;;14.62;77.92;100016.84;435197;1293;145131;-64
2022/10/19 08:32:09;;;;;;;5.70;3.00;;;;;;;14.97;76.36;100010.73;435464;1291;142792;-64
2022/10/19 08:42:19;;;;;;;4.90;2.90;;;;;;;13.95;75.11;100019.31;434781;1287;143371;-65
2022/10/19 08:52:29;;;;;;;11.30;4.40;;;;;;;13.29;75.24;100021.73;435501;1295;143045;-65
2022/10/19 09:02:51;;;;;;;5.40;3.30;;;;;;;12.51;75.44;100027.30;434743;1284;142094;-65
2022/10/19 09:12:58;;;;;;;;;;;;;;;12.07;76.15;100031.41;435580;1284;142902;-65
2022/10/19 09:23:12;;;;;;;8.60;3.20;;;;;;;12.20;76.39;100031.52;435676;1289;130657;-65
2022/10/19 09:33:26;;;;;;;5.90;1.80;;;;;;;12.34;75.64;100039.95;434968;1287;207060;-65
2022/10/19 09:43:32;;;;;;;6.90;2.20;;;;;;;11.52;77.80;100059.30;435521;1292;144267;-66
2022/10/19 09:53:43;;;;;;;3.70;1.70;;;;;;;11.21;79.67;100072.56;434768;1284;143091;-66
2022/10/19 10:03:51;;;;;;;6.10;2.50;;;;;;;11.14;80.47;100074.02;435477;1285;144311;-65
2022/10/19 10:14:07;;;;;;;6.20;2.60;;;;;;;10.93;81.29;100073.14;435456;1283;142163;-65
2022/10/19 10:24:21;;;;;;;1.80;1.60;;;;;;;11.14;82.31;100074.55;434795;1283;142556;-65
2022/10/19 10:34:37;;;;;;;3.80;2.10;;;;;;;11.31;81.94;100076.73;435494;1288;142985;-66
2022/10/19 10:44:56;;;;;;;4.80;2.10;;;;;;;11.15;82.13;100080.06;434728;1287;142752;-66
2022/10/19 10:55:14;;;;;;;3.70;2.20;;;;;;;11.49;82.09;100077.05;435544;1277;143101;-65
2022/10/19 11:05:25;;;;;;;1.90;1.10;;;;;;;11.84;81.18;100076.52;434808;1285;142860;-65
2022/10/19 11:15:35;;;;;;;2.30;1.30;;;;;;;11.60;80.84;100081.63;435529;1285;141440;-65
2022/10/19 11:25:52;;;;;;;7.00;3.00;;;;;;;11.29;81.77;100077.52;435525;1285;143742;-65
2022/10/19 11:36:02;;;;;;;7.30;3.80;;;;;;;10.96;82.62;100070.50;434817;1285;144059;-64
2022/10/19 11:46:14;;;;;;;2.30;1.70;;;;;;;10.92;83.48;100079.27;435569;1277;142895;-65
2022/10/19 11:56:27;;;;;;;2.30;1.70;;;;;;;11.22;83.20;100080.58;434798;1284;144105;-65
2022/10/19 12:07:03;;;;;;;3.60;1.70;;;;;;;11.29;82.96;100071.58;435521;1285;144691;-64
2022/10/19 12:17:15;;;;;;;2.50;1.60;;;;;;;11.33;82.77;100076.04;435531;1286;141630;-64
2022/10/19 12:27:29;;;;;;;5.80;1.60;;;;;;;11.18;82.34;100078.52;435138;1285;142587;-64
2022/10/19 12:37:43;;;;;;;1.90;1.50;;;;;;;10.84;82.06;100070.48;435513;1291;143847;-65
2022/10/19 12:48:21;;;;;;;2.70;1.20;;;;;;;10.57;82.16;100065.69;434750;1287;141851;-65
2022/10/19 12:58:31;;;;;;;2.90;1.30;;;;;;;10.69;82.73;100062.93;435446;1285;145845;-65
2022/10/19 13:08:47;;;;;;;2.30;1.60;;;;;;;11.47;82.21;100056.48;434581;1287;171978;-65
2022/10/19 13:19:18;;;;;;;1.50;0.70;;;;;;;12.10;80.47;100065.30;435498;1287;142633;-65
2022/10/19 13:29:28;;;;;;;3.50;0.60;;;;;;;11.64;75.98;100082.26;434748;1278;141689;-65
2022/10/19 13:39:39;;;;;;;5.30;0.90;;;;;;;10.84;75.36;100105.16;435492;1285;142172;-65
2022/10/19 13:50:11;;;;;;;6.20;1.80;;;;;;;10.39;75.89;100107.61;435547;1287;142222;-66
2022/10/19 14:00:19;;;;;;;8.10;4.80;;;;;;;10.43;76.23;100113.52;434924;1286;211180;-64
2022/10/19 14:10:26;;;;;;;9.70;5.20;;;;;;;10.49;76.33;100118.63;435493;1285;142677;-65
2022/10/19 14:20:38;;;;;;;6.70;3.80;;;;;;;10.56;76.48;100121.41;434682;1292;142726;-67
2022/10/19 14:30:53;;;;;;;7.40;3.90;;;;;;;10.61;76.29;100126.92;436187;1282;141847;-65
2022/10/19 14:40:59;;;;;;;4.60;2.90;;;;;;;10.48;75.91;100124.67;436144;1283;142800;-66
2022/10/19 14:51:14;;;;;;;6.70;2.80;;;;;;;10.20;75.70;100130.52;435450;1285;142518;-66
2022/10/19 15:01:21;;;;;;;5.20;4.00;;;;;;;9.87;75.97;100147.27;436206;1287;151534;-66
2022/10/19 15:11:30;;;;;;;3.60;2.70;;;;;;;9.70;75.94;100154.64;435477;1277;143138;-66
2022/10/19 15:21:36;;;;;;;6.00;4.50;;;;;;;9.40;76.26;100160.68;425610;1282;142424;-66
2022/10/19 15:31:42;;;;;;;6.80;5.10;;;;;;;9.19;76.93;100177.07;424606;1282;142463;-66
2022/10/19 15:41:47;;;;;;;7.50;6.70;;;;;;;9.17;77.24;100177.67;427743;1275;142098;-65
2022/10/19 15:51:53;;;;;;;6.80;4.90;;;;;;;9.14;77.14;100181.52;422103;1275;141398;-65
2022/10/19 16:01:59;;;;;;;8.50;6.10;;;;;;;8.94;76.93;100193.80;434432;1282;145150;-65
2022/10/19 16:12:05;;;;;;;7.40;4.40;;;;;;;8.65;77.09;100208.74;425570;1275;143124;-65
2022/10/19 16:22:11;;;;;;;5.10;3.00;;;;;;;8.40;76.99;100223.30;423317;1282;143704;-64
2022/10/19 16:32:17;;;;;;;7.10;3.40;;;;;;;8.12;77.58;100245.09;434304;1280;141531;-66
2022/10/19 16:42:24;;;;;;;3.80;2.90;;;;;;;8.19;77.87;100263.61;435787;1277;153148;-67
2022/10/19 16:52:35;;;;;;;4.00;2.40;;;;;;;8.33;76.98;100275.06;436119;1283;142646;-67
2022/10/19 17:02:41;;;;;;;6.20;2.70;;;;;;;8.23;76.79;100282.63;435535;1284;142130;-65
2022/10/19 17:12:50;;;;;;;5.40;2.90;;;;;;;8.14;76.42;100295.91;436228;1284;142954;-65
2022/10/19 17:22:56;;;;;;;7.70;2.70;;;;;;;8.18;76.21;100311.27;435426;1282;144779;-65
2022/10/19 17:33:02;;;;;;;6.90;3.20;;;;;;;8.17;76.06;100317.76;435605;1283;141904;-65
2022/10/19 17:43:08;;;;;;;6.50;3.70;;;;;;;8.18;75.98;100332.02;436308;1285;141739;-66
2022/10/19 17:53:13;;;;;;;8.80;5.10;;;;;;;8.16;75.46;100350.78;436328;1282;142561;-68
2022/10/19 18:03:19;;;;;;;4.40;3.90;;;;;;;8.08;75.23;100351.60;435787;1284;208021;-65
2022/10/19 18:13:26;;;;;;;6.60;3.60;;;;;;;7.76;75.17;100357.59;428388;1282;153652;-65
2022/10/19 18:23:31;;;;;;;5.90;3.80;;;;;;;7.31;75.50;100361.27;430490;1274;142548;-65
2022/10/19 18:33:37;;;;;;;6.70;3.30;;;;;;;6.94;75.71;100374.27;421897;1275;142064;-65
2022/10/19 18:43:43;;;;;;;5.00;3.30;;;;;;;6.59;75.89;100382.65;422418;1277;143727;-65
2022/10/19 18:53:50;;;;;;;7.70;5.40;;;;;;;6.29;76.16;100389.23;430356;1282;141385;-66
2022/10/19 19:03:59;;;;;;;8.90;3.90;;;;;;;6.04;76.24;100405.83;424271;1275;147531;-65
2022/10/19 19:14:06;;;;;;;10.70;4.70;;;;;;;5.84;76.41;100420.54;436056;1281;142437;-66
2022/10/19 19:24:14;;;;;;;10.00;4.60;;;;;;;5.60;76.67;100432.36;432997;1274;141848;-67
2022/10/19 19:34:20;;;;;;;8.80;4.50;;;;;;;5.42;76.74;100433.92;423188;1277;142249;-67
2022/10/19 19:44:28;;;;;;;17.30;5.90;;;;;;;5.19;77.19;100445.88;420126;1281;143456;-67
2022/10/19 19:54:35;;;;;;;8.60;3.90;;;;;;;4.96;77.48;100459.33;422619;1274;141988;-68
2022/10/19 20:04:41;;;;;;;8.00;3.60;;;;;;;4.76;77.52;100463.14;420750;1282;141681;-69
2022/10/19 20:14:47;;;;;;;4.60;3.20;;;;;;;4.57;77.70;100472.30;421244;1275;141289;-67
2022/10/19 20:24:56;;;;;;;10.50;3.40;;;;;;;4.41;78.00;100475.27;422480;1274;144481;-67
2022/10/19 20:35:03;;;;;;;9.20;4.00;;;;;;;4.23;78.13;100488.70;423503;1283;142323;-68
2022/10/19 20:45:12;;;;;;;8.90;4.60;;;;;;;4.09;78.40;100495.95;421065;1275;141820;-70
2022/10/19 20:55:20;;;;;;;10.20;4.70;;;;;;;3.84;78.65;100495.63;422903;1281;143903;-67
2022/10/19 21:05:26;;;;;;;5.30;3.30;;;;;;;3.51;79.08;100505.48;421178;1281;142947;-68
2022/10/19 21:15:32;;;;;;;8.10;4.20;;;;;;;3.19;79.65;100514.40;420273;1281;141204;-70
2022/10/19 21:25:38;;;;;;;9.60;6.80;;;;;;;2.92;79.69;100518.67;422712;1274;142395;-69
2022/10/19 21:35:43;;;;;;;11.60;6.50;;;;;;;2.67;80.11;100516.17;422196;1281;141618;-67
2022/10/19 21:45:49;;;;;;;6.80;4.60;;;;;;;2.42;80.41;100519.49;420387;1275;184515;-70
2022/10/19 21:55:59;;;;;;;7.80;4.80;;;;;;;2.21;81.20;100513.77;421181;1282;141638;-68
2022/10/19 22:06:05;;;;;;;5.30;4.50;;;;;;;2.00;81.28;100520.44;422241;1281;142973;-68
2022/10/19 22:16:13;;;;;;;7.50;4.50;;;;;;;1.82;81.69;100527.93;420446;1274;142867;-68
2022/10/19 22:26:21;;;;;;;6.20;4.50;;;;;;;1.64;81.84;100536.09;420354;1282;142954;-68
2022/10/19 22:36:27;;;;;;;14.40;8.30;;;;;;;1.47;82.37;100544.40;419757;1274;142240;-67
2022/10/19 22:46:33;;;;;;;18.00;10.20;;;;;;;1.30;82.39;100546.64;422903;1281;143497;-67
2022/10/19 22:56:39;;;;;;;13.40;8.80;;;;;;;1.19;82.87;100553.48;422535;1282;143234;-68
2022/10/19 23:06:45;;;;;;;14.60;10.90;;;;;;;1.03;82.66;100543.98;421066;1282;141773;-68
2022/10/19 23:16:51;;;;;;;21.00;10.90;;;;;;;0.89;82.76;100554.79;419980;1281;143293;-68
2022/10/19 23:26:57;;;;;;;13.70;9.40;;;;;;;0.75;82.95;100560.41;419320;1281;142842;-68
2022/10/19 23:37:03;;;;;;;18.00;11.50;;;;;;;0.62;82.84;100568.09;420375;1275;142104;-69
